createdAt,value
2017-09-09T00:00:11.259Z,14.20
2017-09-09T00:02:39.552Z,14.20
2017-09-09T00:05:07.074Z,14.20
2017-09-09T00:07:35.358Z,14.10
2017-09-09T00:10:03.354Z,14.10
2017-09-09T00:12:30.870Z,14.10
2017-09-09T00:14:58.384Z,14.20
2017-09-09T00:17:25.907Z,14.10
2017-09-09T00:19:53.427Z,14.10
2017-09-09T00:22:20.955Z,14.00
2017-09-09T00:24:48.519Z,14.00
2017-09-09T00:27:16.047Z,14.00
2017-09-09T00:29:43.602Z,13.90
2017-09-09T00:32:11.114Z,13.90
2017-09-09T00:34:38.630Z,13.90
2017-09-09T00:37:06.171Z,13.80
2017-09-09T00:39:33.709Z,13.80
2017-09-09T00:42:01.247Z,13.80
2017-09-09T00:44:28.759Z,13.80
2017-09-09T00:46:57.117Z,13.80
2017-09-09T00:49:24.655Z,13.80
2017-09-09T00:51:52.987Z,13.60
2017-09-09T00:54:21.277Z,13.60
2017-09-09T00:56:48.812Z,13.60
2017-09-09T00:59:17.124Z,13.40
2017-09-09T01:01:44.653Z,13.50
2017-09-09T01:04:12.972Z,13.40
2017-09-09T01:06:41.348Z,13.30
2017-09-09T01:09:09.171Z,13.30
2017-09-09T01:11:37.461Z,13.30
2017-09-09T01:14:05.000Z,13.30
2017-09-09T01:16:32.554Z,13.20
2017-09-09T01:19:00.076Z,13.20
2017-09-09T01:21:27.626Z,13.20
2017-09-09T01:23:55.167Z,13.20
2017-09-09T01:26:22.706Z,13.20
2017-09-09T01:28:50.264Z,13.10
2017-09-09T01:31:18.602Z,13.20
2017-09-09T01:33:46.150Z,13.20
2017-09-09T01:36:13.672Z,13.20
2017-09-09T01:38:41.226Z,13.30
2017-09-09T01:41:08.799Z,13.20
2017-09-09T01:43:36.346Z,13.30
2017-09-09T01:46:03.885Z,13.20
2017-09-09T01:48:31.411Z,13.30
2017-09-09T01:50:58.974Z,13.30
2017-09-09T01:53:26.522Z,13.20
2017-09-09T01:55:54.070Z,13.30
2017-09-09T01:58:21.624Z,13.30
2017-09-09T02:00:49.261Z,13.30
2017-09-09T02:03:16.786Z,13.30
2017-09-09T02:05:44.337Z,13.30
2017-09-09T02:08:11.888Z,13.30
2017-09-09T02:10:39.412Z,13.40
2017-09-09T02:13:07.349Z,13.40
2017-09-09T02:15:34.868Z,13.50
2017-09-09T02:18:02.396Z,13.50
2017-09-09T02:20:29.941Z,13.50
2017-09-09T02:22:57.480Z,13.50
2017-09-09T02:25:25.035Z,13.60
2017-09-09T02:27:52.564Z,13.60
2017-09-09T02:30:20.641Z,13.70
2017-09-09T02:32:48.220Z,13.60
2017-09-09T02:35:15.752Z,13.70
2017-09-09T02:37:44.081Z,13.70
2017-09-09T02:40:11.634Z,13.70
2017-09-09T02:42:39.221Z,13.60
2017-09-09T02:45:06.794Z,13.70
2017-09-09T02:47:34.744Z,13.70
2017-09-09T02:50:02.254Z,13.70
2017-09-09T02:52:29.792Z,13.80
2017-09-09T02:54:57.362Z,13.70
2017-09-09T02:57:25.655Z,13.80
2017-09-09T02:59:53.562Z,13.80
2017-09-09T03:02:21.090Z,13.80
2017-09-09T03:04:49.377Z,13.90
2017-09-09T03:07:16.938Z,13.90
2017-09-09T03:09:44.457Z,13.90
2017-09-09T03:12:12.006Z,13.90
2017-09-09T03:14:39.571Z,13.80
2017-09-09T03:17:08.304Z,13.70
2017-09-09T03:19:35.849Z,13.70
2017-09-09T03:22:03.379Z,13.60
2017-09-09T03:24:30.931Z,13.50
2017-09-09T03:26:59.256Z,13.40
2017-09-09T03:29:26.816Z,13.40
2017-09-09T03:31:54.339Z,13.30
2017-09-09T03:34:22.664Z,13.30
2017-09-09T03:36:50.212Z,13.30
2017-09-09T03:39:17.769Z,13.30
2017-09-09T03:41:45.310Z,13.30
2017-09-09T03:44:12.836Z,13.30
2017-09-09T03:46:40.806Z,13.30
2017-09-09T03:49:08.334Z,13.30
2017-09-09T03:51:35.872Z,13.50
2017-09-09T03:54:03.411Z,13.50
2017-09-09T03:56:30.947Z,13.40
2017-09-09T03:58:58.906Z,13.60
2017-09-09T04:01:26.425Z,13.50
2017-09-09T04:03:53.948Z,13.50
2017-09-09T04:06:21.473Z,13.50
2017-09-09T04:08:49.072Z,13.50
2017-09-09T04:11:16.606Z,13.50
2017-09-09T04:13:44.144Z,13.50
2017-09-09T04:16:11.974Z,13.40
2017-09-09T04:18:39.506Z,13.50
2017-09-09T04:21:07.034Z,13.40
2017-09-09T04:23:34.570Z,13.30
2017-09-09T04:26:02.108Z,13.30
2017-09-09T04:28:29.645Z,13.30
2017-09-09T04:30:57.181Z,13.30
2017-09-09T04:33:24.732Z,13.30
2017-09-09T04:35:52.289Z,13.20
2017-09-09T04:38:19.885Z,13.10
2017-09-09T04:40:47.430Z,13.10
2017-09-09T04:43:14.958Z,13.10
2017-09-09T04:45:42.544Z,13.00
2017-09-09T04:48:10.094Z,12.90
2017-09-09T04:50:37.646Z,13.00
2017-09-09T04:53:05.974Z,12.90
2017-09-09T04:55:33.520Z,12.90
2017-09-09T04:58:01.076Z,12.90
2017-09-09T05:00:28.595Z,13.00
2017-09-09T05:02:56.147Z,12.90
2017-09-09T05:05:23.678Z,12.90
2017-09-09T05:07:51.203Z,12.80
2017-09-09T05:10:18.735Z,12.80
2017-09-09T05:12:47.038Z,12.90
2017-09-09T05:15:14.573Z,12.90
2017-09-09T05:17:42.123Z,12.90
2017-09-09T05:20:09.652Z,12.90
2017-09-09T05:22:37.196Z,12.90
2017-09-09T05:25:04.720Z,12.90
2017-09-09T05:27:32.260Z,12.90
2017-09-09T05:29:59.785Z,12.90
2017-09-09T05:32:27.314Z,12.90
2017-09-09T05:34:54.894Z,12.90
2017-09-09T05:37:22.420Z,12.90
2017-09-09T05:39:49.986Z,13.00
2017-09-09T05:42:17.515Z,13.00
2017-09-09T05:44:45.059Z,13.00
2017-09-09T05:47:12.594Z,12.90
2017-09-09T05:49:40.145Z,13.00
2017-09-09T05:52:07.702Z,13.00
2017-09-09T05:54:35.246Z,13.00
2017-09-09T05:57:02.795Z,13.00
2017-09-09T05:59:30.339Z,13.10
2017-09-09T06:01:57.955Z,13.10
2017-09-09T06:04:25.500Z,13.10
2017-09-09T06:06:53.389Z,13.00
2017-09-09T06:09:20.927Z,12.90
2017-09-09T06:11:48.478Z,12.90
2017-09-09T06:14:16.840Z,12.70
2017-09-09T06:16:45.151Z,12.70
2017-09-09T06:19:12.699Z,12.80
2017-09-09T06:21:40.270Z,12.70
2017-09-09T06:24:08.241Z,12.80
2017-09-09T06:26:35.794Z,12.80
2017-09-09T06:29:03.338Z,12.80
2017-09-09T06:31:31.683Z,12.80
2017-09-09T06:33:59.214Z,12.80
2017-09-09T06:36:26.807Z,12.90
2017-09-09T06:38:54.535Z,12.90
2017-09-09T06:41:22.497Z,12.90
2017-09-09T06:43:50.042Z,12.90
2017-09-09T06:46:17.580Z,12.90
2017-09-09T06:48:45.157Z,13.00
2017-09-09T06:51:12.679Z,13.10
2017-09-09T06:53:40.230Z,13.00
2017-09-09T06:56:07.772Z,13.00
2017-09-09T06:58:35.327Z,13.00
2017-09-09T07:01:02.867Z,13.00
2017-09-09T07:03:30.414Z,13.00
2017-09-09T07:05:57.998Z,13.00
2017-09-09T07:08:25.542Z,13.00
2017-09-09T07:10:53.106Z,13.00
2017-09-09T07:13:20.651Z,13.00
2017-09-09T07:15:48.454Z,13.00
2017-09-09T07:18:16.002Z,13.00
2017-09-09T07:20:43.576Z,13.00
2017-09-09T07:23:11.110Z,13.00
2017-09-09T07:25:38.936Z,13.10
2017-09-09T07:28:06.484Z,13.10
2017-09-09T07:30:34.838Z,13.40
2017-09-09T07:33:02.770Z,13.30
2017-09-09T07:35:30.305Z,13.30
2017-09-09T07:37:57.878Z,13.30
2017-09-09T07:40:25.436Z,13.30
2017-09-09T07:42:52.974Z,13.30
2017-09-09T07:45:20.515Z,13.40
2017-09-09T07:47:48.933Z,13.30
2017-09-09T07:50:16.829Z,13.30
2017-09-09T07:52:44.406Z,13.30
2017-09-09T07:55:11.941Z,13.40
2017-09-09T07:57:39.482Z,13.50
2017-09-09T08:00:07.017Z,13.50
2017-09-09T08:02:34.571Z,13.60
2017-09-09T08:05:02.164Z,13.70
2017-09-09T08:07:29.999Z,13.80
2017-09-09T08:09:57.550Z,13.80
2017-09-09T08:12:25.910Z,14.50
2017-09-09T08:14:53.506Z,13.80
2017-09-09T08:17:21.054Z,13.90
2017-09-09T08:19:48.593Z,13.80
2017-09-09T08:22:16.140Z,13.80
2017-09-09T08:24:43.962Z,13.80
2017-09-09T08:27:11.639Z,13.80
2017-09-09T08:29:39.296Z,13.80
2017-09-09T08:32:07.009Z,13.90
2017-09-09T08:34:34.550Z,13.80
2017-09-09T08:37:02.188Z,13.70
2017-09-09T08:39:29.778Z,13.80
2017-09-09T08:41:57.722Z,13.70
2017-09-09T08:44:25.260Z,13.80
2017-09-09T08:46:52.788Z,13.80
2017-09-09T08:49:20.381Z,13.80
2017-09-09T08:51:47.933Z,13.80
2017-09-09T08:54:15.572Z,13.90
2017-09-09T08:56:43.237Z,13.90
2017-09-09T08:59:11.269Z,14.00
2017-09-09T09:01:38.862Z,14.10
2017-09-09T09:04:06.483Z,14.10
2017-09-09T09:06:34.076Z,14.10
2017-09-09T09:09:01.665Z,14.20
2017-09-09T09:11:29.239Z,14.30
2017-09-09T09:13:57.096Z,14.20
2017-09-09T09:16:24.952Z,14.20
2017-09-09T09:18:52.547Z,14.20
2017-09-09T09:21:20.169Z,14.20
2017-09-09T09:23:47.727Z,14.40
2017-09-09T09:26:15.258Z,14.70
2017-09-09T09:28:43.609Z,15.10
2017-09-09T09:31:11.237Z,15.00
2017-09-09T09:33:39.653Z,15.00
2017-09-09T09:36:07.638Z,14.90
2017-09-09T09:38:35.551Z,14.70
2017-09-09T09:41:03.639Z,14.60
2017-09-09T09:43:31.917Z,14.50
2017-09-09T09:46:00.520Z,14.50
2017-09-09T09:48:28.667Z,14.40
2017-09-09T09:50:56.905Z,14.30
2017-09-09T09:53:26.424Z,14.40
2017-09-09T09:55:54.532Z,14.30
2017-09-09T09:58:22.617Z,14.40
2017-09-09T10:00:50.646Z,14.30
2017-09-09T10:03:18.956Z,14.30
2017-09-09T10:05:47.038Z,14.30
2017-09-09T10:08:15.506Z,14.30
2017-09-09T10:10:43.908Z,14.30
2017-09-09T10:13:11.844Z,14.40
2017-09-09T10:15:40.009Z,14.70
2017-09-09T10:18:07.614Z,15.10
2017-09-09T10:20:35.191Z,15.40
2017-09-09T10:23:03.545Z,16.10
2017-09-09T10:25:46.296Z,16.10
2017-09-09T10:28:13.841Z,16.20
2017-09-09T10:30:41.374Z,16.10
2017-09-09T10:33:08.913Z,16.20
2017-09-09T10:35:36.628Z,15.30
2017-09-09T10:38:04.188Z,15.80
2017-09-09T10:40:32.481Z,15.70
2017-09-09T10:43:00.071Z,15.70
2017-09-09T10:45:27.622Z,15.80
2017-09-09T10:47:55.182Z,15.70
2017-09-09T10:50:22.740Z,15.70
2017-09-09T10:52:50.291Z,15.70
2017-09-09T10:55:17.861Z,15.70
2017-09-09T10:57:45.402Z,15.70
2017-09-09T11:00:13.274Z,15.70
2017-09-09T11:02:40.811Z,15.90
2017-09-09T11:05:08.365Z,16.00
2017-09-09T11:07:35.916Z,16.20
2017-09-09T11:10:03.516Z,16.30
2017-09-09T11:12:31.089Z,16.50
2017-09-09T11:14:58.646Z,16.60
2017-09-09T11:17:26.529Z,16.50
2017-09-09T11:19:54.068Z,16.60
2017-09-09T11:22:21.718Z,16.40
2017-09-09T11:24:49.340Z,16.40
2017-09-09T11:27:17.655Z,16.40
2017-09-09T11:29:45.187Z,16.50
2017-09-09T11:32:12.734Z,16.60
2017-09-09T11:34:40.282Z,16.50
2017-09-09T11:37:07.846Z,16.60
2017-09-09T11:39:35.381Z,16.50
2017-09-09T11:42:02.918Z,16.50
2017-09-09T11:44:30.463Z,16.30
2017-09-09T11:46:57.998Z,16.30
2017-09-09T11:49:26.481Z,16.20
2017-09-09T11:51:54.189Z,16.30
2017-09-09T11:54:21.771Z,16.00
2017-09-09T11:56:49.310Z,15.90
2017-09-09T11:59:16.901Z,16.00
2017-09-09T12:01:44.446Z,16.10
2017-09-09T12:04:11.985Z,16.30
2017-09-09T12:06:39.562Z,16.40
2017-09-09T12:09:07.174Z,16.30
2017-09-09T12:11:34.733Z,16.30
2017-09-09T12:14:02.284Z,16.10
2017-09-09T12:16:29.840Z,16.20
2017-09-09T12:18:58.200Z,16.40
2017-09-09T12:21:25.731Z,16.40
2017-09-09T12:23:54.095Z,16.50
2017-09-09T12:26:21.640Z,16.70
2017-09-09T12:28:49.227Z,17.00
2017-09-09T12:31:16.793Z,17.10
2017-09-09T12:33:45.144Z,16.90
2017-09-09T12:36:12.705Z,16.90
2017-09-09T12:38:40.284Z,16.80
2017-09-09T12:41:07.823Z,16.90
2017-09-09T12:43:35.360Z,17.00
2017-09-09T12:46:02.913Z,17.00
2017-09-09T12:48:30.462Z,16.90
2017-09-09T12:50:57.971Z,16.90
2017-09-09T12:53:25.525Z,16.80
2017-09-09T12:55:53.070Z,16.80
2017-09-09T12:58:20.625Z,16.80
2017-09-09T13:00:48.192Z,16.80
2017-09-09T13:03:16.510Z,17.10
2017-09-09T13:05:44.058Z,17.10
2017-09-09T13:08:11.583Z,17.20
2017-09-09T13:10:39.150Z,17.10
2017-09-09T13:13:06.701Z,17.20
2017-09-09T13:15:34.223Z,17.30
2017-09-09T13:18:01.780Z,17.30
2017-09-09T13:20:29.319Z,17.30
2017-09-09T13:22:56.878Z,17.40
2017-09-09T13:25:24.411Z,17.50
2017-09-09T13:27:51.965Z,17.50
2017-09-09T13:30:19.548Z,17.50
2017-09-09T13:32:47.087Z,17.40
2017-09-09T13:35:14.663Z,17.40
2017-09-09T13:37:42.208Z,17.30
2017-09-09T13:40:09.796Z,17.30
2017-09-09T13:42:37.356Z,17.20
2017-09-09T13:45:04.959Z,17.40
2017-09-09T13:47:32.481Z,17.50
2017-09-09T13:50:00.058Z,17.70
2017-09-09T13:52:28.428Z,18.00
2017-09-09T13:54:55.978Z,18.00
2017-09-09T13:57:24.323Z,17.70
2017-09-09T13:59:51.855Z,17.60
2017-09-09T14:02:20.568Z,17.60
2017-09-09T14:04:48.102Z,17.60
2017-09-09T14:07:15.631Z,17.50
2017-09-09T14:09:43.951Z,17.40
2017-09-09T14:12:13.139Z,17.50
2017-09-09T14:14:40.714Z,17.50
2017-09-09T14:17:08.261Z,17.40
2017-09-09T14:19:35.808Z,17.30
2017-09-09T14:22:03.372Z,17.20
2017-09-09T14:24:31.687Z,16.80
2017-09-09T14:26:59.226Z,16.70
2017-09-09T14:29:26.771Z,16.60
2017-09-09T14:31:55.071Z,16.40
2017-09-09T14:34:22.624Z,16.40
2017-09-09T14:36:51.055Z,16.10
2017-09-09T14:39:19.384Z,15.20
2017-09-09T14:41:47.121Z,15.10
2017-09-09T14:44:14.692Z,14.80
2017-09-09T14:46:42.309Z,14.40
2017-09-09T14:49:10.138Z,14.10
2017-09-09T14:51:37.664Z,14.00
2017-09-09T14:54:05.230Z,13.70
2017-09-09T14:56:32.791Z,13.80
2017-09-09T14:59:00.309Z,13.80
2017-09-09T15:01:27.931Z,13.80
2017-09-09T15:03:56.167Z,13.90
2017-09-09T15:06:23.712Z,14.10
2017-09-09T15:08:51.442Z,14.30
2017-09-09T15:11:18.974Z,14.40
2017-09-09T15:13:46.567Z,14.60
2017-09-09T15:16:14.272Z,14.50
2017-09-09T15:18:41.837Z,14.50
2017-09-09T15:21:09.382Z,14.50
2017-09-09T15:23:36.923Z,14.50
2017-09-09T15:26:04.461Z,14.70
2017-09-09T15:28:32.878Z,14.80
2017-09-09T15:31:00.418Z,14.80
2017-09-09T15:33:27.968Z,14.90
2017-09-09T15:35:55.549Z,15.00
2017-09-09T15:38:23.906Z,14.80
2017-09-09T15:40:51.474Z,14.90
2017-09-09T15:43:19.052Z,14.80
2017-09-09T15:45:46.607Z,14.80
2017-09-09T15:48:14.218Z,14.80
2017-09-09T15:50:41.776Z,14.90
2017-09-09T15:53:10.517Z,14.90
2017-09-09T15:55:38.084Z,15.00
2017-09-09T15:58:08.387Z,15.10
2017-09-09T16:00:35.944Z,15.10
2017-09-09T16:03:03.697Z,15.20
2017-09-09T16:05:31.304Z,15.40
2017-09-09T16:07:58.878Z,15.50
2017-09-09T16:10:26.429Z,15.50
2017-09-09T16:12:53.993Z,15.60
2017-09-09T16:15:22.315Z,16.30
2017-09-09T16:17:49.850Z,16.30
2017-09-09T16:20:17.398Z,17.10
2017-09-09T16:22:45.288Z,17.70
2017-09-09T16:25:12.861Z,18.10
2017-09-09T16:27:40.383Z,18.60
2017-09-09T16:30:07.941Z,19.60
2017-09-09T16:32:35.489Z,20.40
2017-09-09T16:35:03.047Z,20.70
2017-09-09T16:37:30.594Z,21.20
2017-09-09T16:39:58.171Z,21.60
2017-09-09T16:42:25.712Z,21.90
2017-09-09T16:44:53.282Z,21.80
2017-09-09T16:47:20.856Z,21.00
2017-09-09T16:49:48.400Z,20.00
2017-09-09T16:52:15.983Z,19.10
2017-09-09T16:54:43.530Z,18.30
2017-09-09T16:57:11.542Z,17.70
2017-09-09T16:59:39.092Z,17.00
2017-09-09T17:02:06.687Z,16.50
2017-09-09T17:04:34.492Z,16.00
2017-09-09T17:07:02.130Z,15.80
2017-09-09T17:09:30.529Z,15.40
2017-09-09T17:11:59.024Z,15.20
2017-09-09T17:14:27.036Z,15.00
2017-09-09T17:16:54.791Z,14.90
2017-09-09T17:19:22.339Z,14.80
2017-09-09T17:21:49.918Z,14.70
2017-09-09T17:24:18.418Z,14.60
2017-09-09T17:26:46.233Z,14.50
2017-09-09T17:29:13.778Z,14.50
2017-09-09T17:31:41.342Z,14.40
2017-09-09T17:34:08.899Z,14.40
2017-09-09T17:36:36.434Z,14.40
2017-09-09T17:39:04.775Z,14.20
2017-09-09T17:41:32.333Z,14.20
2017-09-09T17:44:00.280Z,14.10
2017-09-09T17:46:28.490Z,14.10
2017-09-09T17:48:56.925Z,14.10
2017-09-09T17:51:26.902Z,14.00
2017-09-09T17:53:55.960Z,14.00
2017-09-09T17:56:23.548Z,14.00
2017-09-09T17:58:51.119Z,13.90
2017-09-09T18:01:18.667Z,13.90
2017-09-09T18:03:49.615Z,13.80
2017-09-09T18:06:18.137Z,13.80
2017-09-09T18:08:46.162Z,13.70
2017-09-09T18:11:14.470Z,13.60
2017-09-09T18:13:46.042Z,13.60
2017-09-09T18:16:14.382Z,13.60
2017-09-09T18:18:43.288Z,13.30
2017-09-09T18:21:11.412Z,13.30
2017-09-09T18:23:39.672Z,13.30
2017-09-09T18:26:08.710Z,13.10
2017-09-09T18:28:36.812Z,13.10
2017-09-09T18:31:04.571Z,13.10
2017-09-09T18:33:32.446Z,13.00
2017-09-09T18:36:00.426Z,12.90
2017-09-09T18:38:28.506Z,12.90
2017-09-09T18:40:56.607Z,12.70
2017-09-09T18:43:24.935Z,12.80
2017-09-09T18:45:52.816Z,12.70
2017-09-09T18:48:21.175Z,12.70
2017-09-09T18:50:56.297Z,12.70
2017-09-09T18:53:24.421Z,12.70
2017-09-09T18:55:52.425Z,12.70
2017-09-09T18:58:20.428Z,12.70
2017-09-09T19:00:48.633Z,12.70
2017-09-09T19:03:17.297Z,12.70
2017-09-09T19:05:45.898Z,12.70
2017-09-09T19:08:13.867Z,12.70
2017-09-09T19:10:41.917Z,12.70
2017-09-09T19:13:09.830Z,12.80
2017-09-09T19:15:37.800Z,12.70
2017-09-09T19:18:05.549Z,12.60
2017-09-09T19:20:33.939Z,12.60
2017-09-09T19:23:01.755Z,12.60
2017-09-09T19:25:30.506Z,12.50
2017-09-09T19:27:58.759Z,12.40
2017-09-09T19:30:26.802Z,12.30
2017-09-09T19:32:55.036Z,12.20
2017-09-09T19:35:23.049Z,12.10
2017-09-09T19:37:51.114Z,12.00
2017-09-09T19:40:19.066Z,11.90
2017-09-09T19:42:48.008Z,11.80
2017-09-09T19:45:16.850Z,11.80
2017-09-09T19:47:44.944Z,11.80
2017-09-09T19:50:13.191Z,11.80
2017-09-09T19:52:41.447Z,11.20
2017-09-09T19:55:11.211Z,11.70
2017-09-09T19:57:39.317Z,11.80
2017-09-09T20:00:08.168Z,11.60
2017-09-09T20:02:36.349Z,11.70
2017-09-09T20:05:04.230Z,11.70
2017-09-09T20:07:32.546Z,11.70
2017-09-09T20:10:00.910Z,11.70
2017-09-09T20:12:28.881Z,11.70
2017-09-09T20:14:57.078Z,11.70
2017-09-09T20:17:25.312Z,11.80
2017-09-09T20:19:53.555Z,11.80
2017-09-09T20:22:21.499Z,11.80
2017-09-09T20:24:50.259Z,11.90
2017-09-09T20:27:18.471Z,11.90
2017-09-09T20:29:46.450Z,11.90
2017-09-09T20:32:14.396Z,11.90
2017-09-09T20:34:42.593Z,12.00
2017-09-09T20:37:10.401Z,11.90
2017-09-09T20:39:38.919Z,11.90
2017-09-09T20:42:09.539Z,12.00
2017-09-09T20:44:37.826Z,12.00
2017-09-09T20:47:05.859Z,12.00
2017-09-09T20:49:34.214Z,12.00
2017-09-09T20:52:02.198Z,11.90
2017-09-09T20:54:30.966Z,11.80
2017-09-09T20:56:59.360Z,11.80
2017-09-09T20:59:27.157Z,11.70
2017-09-09T21:01:55.840Z,11.70
2017-09-09T21:04:23.852Z,11.60
2017-09-09T21:06:52.677Z,11.50
2017-09-09T21:09:20.625Z,11.50
2017-09-09T21:11:48.559Z,11.40
2017-09-09T21:14:16.934Z,11.30
2017-09-09T21:16:44.939Z,11.30
2017-09-09T21:19:13.130Z,11.20
2017-09-09T21:21:41.881Z,11.10
2017-09-09T21:24:10.039Z,11.10
2017-09-09T21:26:37.959Z,11.10
2017-09-09T21:29:06.201Z,11.00
2017-09-09T21:31:34.484Z,11.00
2017-09-09T21:34:02.732Z,10.90
2017-09-09T21:36:30.706Z,10.80
2017-09-09T21:38:58.820Z,10.80
2017-09-09T21:41:27.773Z,10.70
2017-09-09T21:43:55.932Z,10.80
2017-09-09T21:46:24.958Z,10.70
2017-09-09T21:48:52.577Z,10.70
2017-09-09T21:51:20.114Z,10.60
2017-09-09T21:53:47.700Z,10.60
2017-09-09T22:09:25.653Z,10.80
2017-09-09T22:11:53.495Z,10.70
2017-09-09T22:14:21.027Z,10.60
2017-09-09T22:16:48.591Z,10.50
2017-09-09T22:19:16.190Z,10.50
2017-09-09T22:21:43.760Z,10.30
2017-09-09T22:24:11.320Z,10.30
2017-09-09T22:26:38.862Z,10.40
2017-09-09T22:29:06.688Z,10.30
2017-09-09T22:31:34.225Z,10.30
2017-09-09T22:34:01.787Z,10.20
2017-09-09T22:36:29.327Z,10.20
2017-09-09T22:38:56.853Z,10.20
2017-09-09T22:41:24.426Z,10.20
2017-09-09T22:43:51.961Z,10.20
2017-09-09T22:46:19.510Z,10.20
2017-09-09T22:48:47.070Z,10.20
2017-09-09T22:51:14.617Z,10.20
2017-09-09T22:53:42.181Z,10.20
2017-09-09T22:56:10.480Z,10.20
2017-09-09T22:58:38.310Z,10.10
2017-09-09T23:01:06.597Z,10.20
2017-09-09T23:03:34.135Z,10.10
2017-09-09T23:06:02.474Z,10.10
2017-09-09T23:08:30.035Z,10.20
2017-09-09T23:10:58.315Z,10.10
2017-09-09T23:13:25.859Z,10.10
2017-09-09T23:15:53.423Z,10.00
2017-09-09T23:18:20.961Z,10.00
2017-09-09T23:20:48.493Z,9.90
2017-09-09T23:23:16.040Z,9.80
2017-09-09T23:25:44.340Z,9.70
2017-09-09T23:28:11.898Z,9.80
2017-09-09T23:30:40.214Z,9.80
2017-09-09T23:33:07.790Z,9.80
2017-09-09T23:35:35.348Z,9.80
2017-09-09T23:38:02.888Z,9.80
2017-09-09T23:40:30.442Z,9.90
2017-09-09T23:42:57.969Z,9.80
2017-09-09T23:45:25.535Z,9.90
2017-09-09T23:47:53.077Z,9.90
2017-09-09T23:50:20.637Z,10.10
2017-09-09T23:52:48.953Z,10.10
2017-09-09T23:55:16.508Z,10.10
2017-09-09T23:57:44.062Z,10.30
